sensor_id;sensor_type;location;lat;lon;timestamp;pressure;altitude;pressure_sealevel;temperature;humidity
27429;BME280;14881;48.092;11.574;2023-12-22T00:02:13;93887.56;;;6.33;100.00
27429;BME280;14881;48.092;11.574;2023-12-22T00:04:39;93903.47;;;6.35;100.00
27429;BME280;14881;48.092;11.574;2023-12-22T00:07:06;93911.81;;;6.47;100.00
27429;BME280;14881;48.092;11.574;2023-12-22T00:09:33;93911.25;;;6.36;100.00
27429;BME280;14881;48.092;11.574;2023-12-22T00:11:59;93933.34;;;6.11;100.00
27429;BME280;14881;48.092;11.574;2023-12-22T00:14:25;93936.41;;;5.90;100.00
27429;BME280;14881;48.092;11.574;2023-12-22T00:16:52;93945.84;;;5.74;100.00
27429;BME280;14881;48.092;11.574;2023-12-22T00:19:18;94017.69;;;5.65;100.00
27429;BME280;14881;48.092;11.574;2023-12-22T00:21:45;94067.09;;;5.23;100.00
27429;BME280;14881;48.092;11.574;2023-12-22T00:24:12;94070.63;;;3.57;100.00
27429;BME280;14881;48.092;11.574;2023-12-22T00:26:38;94042.09;;;2.43;100.00
27429;BME280;14881;48.092;11.574;2023-12-22T00:29:04;94059.63;;;2.16;100.00
27429;BME280;14881;48.092;11.574;2023-12-22T00:31:31;94072.00;;;1.96;100.00
27429;BME280;14881;48.092;11.574;2023-12-22T00:33:57;94063.16;;;1.96;100.00
27429;BME280;14881;48.092;11.574;2023-12-22T00:36:24;94058.34;;;1.98;100.00
27429;BME280;14881;48.092;11.574;2023-12-22T00:38:50;94053.81;;;1.83;100.00
27429;BME280;14881;48.092;11.574;2023-12-22T00:41:17;94043.41;;;1.66;100.00
27429;BME280;14881;48.092;11.574;2023-12-22T00:43:44;94057.88;;;1.60;100.00
27429;BME280;14881;48.092;11.574;2023-12-22T00:46:10;94046.63;;;1.68;100.00
27429;BME280;14881;48.092;11.574;2023-12-22T00:48:37;94063.50;;;1.69;100.00
27429;BME280;14881;48.092;11.574;2023-12-22T00:51:05;94067.47;;;1.77;100.00
27429;BME280;14881;48.092;11.574;2023-12-22T00:53:32;94089.16;;;1.80;100.00
27429;BME280;14881;48.092;11.574;2023-12-22T00:55:59;94078.72;;;1.84;100.00
27429;BME280;14881;48.092;11.574;2023-12-22T00:58:26;94079.81;;;1.67;100.00
27429;BME280;14881;48.092;11.574;2023-12-22T01:00:53;94072.84;;;1.66;100.00
27429;BME280;14881;48.092;11.574;2023-12-22T01:03:19;94086.53;;;1.55;100.00
27429;BME280;14881;48.092;11.574;2023-12-22T01:05:46;94078.75;;;1.48;100.00
27429;BME280;14881;48.092;11.574;2023-12-22T01:08:13;94080.63;;;1.48;100.00
27429;BME280;14881;48.092;11.574;2023-12-22T01:10:39;94073.66;;;1.42;100.00
27429;BME280;14881;48.092;11.574;2023-12-22T01:13:05;94092.13;;;1.43;100.00
27429;BME280;14881;48.092;11.574;2023-12-22T01:15:32;94092.16;;;1.38;100.00
27429;BME280;14881;48.092;11.574;2023-12-22T01:17:59;94097.50;;;1.53;100.00
27429;BME280;14881;48.092;11.574;2023-12-22T01:20:25;94087.06;;;1.52;100.00
27429;BME280;14881;48.092;11.574;2023-12-22T01:22:52;94103.63;;;1.64;100.00
27429;BME280;14881;48.092;11.574;2023-12-22T01:25:18;94095.59;;;1.64;100.00
27429;BME280;14881;48.092;11.574;2023-12-22T01:27:45;94103.91;;;1.62;100.00
27429;BME280;14881;48.092;11.574;2023-12-22T01:30:12;94111.66;;;1.59;100.00
27429;BME280;14881;48.092;11.574;2023-12-22T01:32:39;94107.91;;;1.60;100.00
27429;BME280;14881;48.092;11.574;2023-12-22T01:35:06;94120.78;;;1.53;100.00
27429;BME280;14881;48.092;11.574;2023-12-22T01:37:35;94115.94;;;1.60;100.00
27429;BME280;14881;48.092;11.574;2023-12-22T01:40:02;94123.19;;;1.49;100.00
27429;BME280;14881;48.092;11.574;2023-12-22T01:42:28;94141.09;;;1.54;100.00
27429;BME280;14881;48.092;11.574;2023-12-22T01:44:55;94140.53;;;1.42;100.00
27429;BME280;14881;48.092;11.574;2023-12-22T01:47:21;94120.50;;;1.44;100.00
27429;BME280;14881;48.092;11.574;2023-12-22T01:49:48;94137.59;;;1.28;100.00
27429;BME280;14881;48.092;11.574;2023-12-22T01:52:16;94110.59;;;1.19;100.00
27429;BME280;14881;48.092;11.574;2023-12-22T01:54:43;94124.75;;;1.15;100.00
27429;BME280;14881;48.092;11.574;2023-12-22T01:57:09;94104.41;;;1.09;100.00
27429;BME280;14881;48.092;11.574;2023-12-22T01:59:39;94103.63;;;1.03;100.00
27429;BME280;14881;48.092;11.574;2023-12-22T02:02:06;94106.81;;;1.15;100.00
27429;BME280;14881;48.092;11.574;2023-12-22T02:04:33;94090.25;;;1.18;100.00
27429;BME280;14881;48.092;11.574;2023-12-22T02:07:01;94096.94;;;1.16;100.00
27429;BME280;14881;48.092;11.574;2023-12-22T02:09:28;94109.50;;;1.10;100.00
27429;BME280;14881;48.092;11.574;2023-12-22T02:11:54;94105.22;;;1.14;100.00
27429;BME280;14881;48.092;11.574;2023-12-22T02:14:21;94102.81;;;1.18;100.00
27429;BME280;14881;48.092;11.574;2023-12-22T02:16:52;94108.41;;;1.06;100.00
27429;BME280;14881;48.092;11.574;2023-12-22T02:19:38;94119.91;;;1.01;100.00
27429;BME280;14881;48.092;11.574;2023-12-22T02:22:07;94134.34;;;1.00;100.00
27429;BME280;14881;48.092;11.574;2023-12-22T02:24:36;94125.00;;;1.03;100.00
27429;BME280;14881;48.092;11.574;2023-12-22T02:27:04;94130.84;;;0.85;100.00
27429;BME280;14881;48.092;11.574;2023-12-22T02:29:32;94126.78;;;0.77;100.00
27429;BME280;14881;48.092;11.574;2023-12-22T02:32:03;94111.00;;;0.70;100.00
27429;BME280;14881;48.092;11.574;2023-12-22T02:34:35;94104.88;;;0.75;100.00
27429;BME280;14881;48.092;11.574;2023-12-22T02:37:05;94087.50;;;0.73;100.00
27429;BME280;14881;48.092;11.574;2023-12-22T02:39:35;94071.50;;;0.83;100.00
27429;BME280;14881;48.092;11.574;2023-12-22T02:42:02;94090.19;;;0.88;100.00
27429;BME280;14881;48.092;11.574;2023-12-22T02:44:29;94092.09;;;0.92;100.00
27429;BME280;14881;48.092;11.574;2023-12-22T02:46:56;94090.19;;;0.88;100.00
27429;BME280;14881;48.092;11.574;2023-12-22T02:49:23;94099.81;;;0.89;100.00
27429;BME280;14881;48.092;11.574;2023-12-22T02:51:49;94094.78;;;0.97;100.00
27429;BME280;14881;48.092;11.574;2023-12-22T02:54:15;94071.00;;;1.11;100.00
27429;BME280;14881;48.092;11.574;2023-12-22T02:56:42;94057.63;;;1.11;100.00
27429;BME280;14881;48.092;11.574;2023-12-22T02:59:09;94052.81;;;1.18;100.00
27429;BME280;14881;48.092;11.574;2023-12-22T03:01:35;94066.72;;;1.15;100.00
27429;BME280;14881;48.092;11.574;2023-12-22T03:04:02;94070.19;;;1.26;100.00
27429;BME280;14881;48.092;11.574;2023-12-22T03:06:28;94070.75;;;1.18;100.00
27429;BME280;14881;48.092;11.574;2023-12-22T03:08:54;94074.47;;;1.32;100.00
27429;BME280;14881;48.092;11.574;2023-12-22T03:11:21;94053.63;;;1.34;100.00
27429;BME280;14881;48.092;11.574;2023-12-22T03:13:47;94060.84;;;1.38;100.00
27429;BME280;14881;48.092;11.574;2023-12-22T03:16:14;94053.34;;;1.35;100.00
27429;BME280;14881;48.092;11.574;2023-12-22T03:18:41;94050.16;;;1.38;100.00
27429;BME280;14881;48.092;11.574;2023-12-22T03:21:07;94033.81;;;1.45;100.00
27429;BME280;14881;48.092;11.574;2023-12-22T03:23:33;94045.88;;;1.37;100.00
27429;BME280;14881;48.092;11.574;2023-12-22T03:26:02;94046.38;;;1.39;100.00
27429;BME280;14881;48.092;11.574;2023-12-22T03:28:29;94047.75;;;1.37;100.00
27429;BME280;14881;48.092;11.574;2023-12-22T03:30:55;94048.25;;;1.49;100.00
27429;BME280;14881;48.092;11.574;2023-12-22T03:33:22;94043.16;;;1.58;100.00
27429;BME280;14881;48.092;11.574;2023-12-22T03:35:49;94054.13;;;1.61;100.00
27429;BME280;14881;48.092;11.574;2023-12-22T03:38:15;94038.88;;;1.62;100.00
27429;BME280;14881;48.092;11.574;2023-12-22T03:40:42;94049.56;;;1.62;100.00
27429;BME280;14881;48.092;11.574;2023-12-22T03:43:08;94046.09;;;1.66;100.00
27429;BME280;14881;48.092;11.574;2023-12-22T03:45:35;94027.91;;;1.63;100.00
27429;BME280;14881;48.092;11.574;2023-12-22T03:48:01;94029.22;;;1.66;100.00
27429;BME280;14881;48.092;11.574;2023-12-22T03:50:28;94020.41;;;1.65;100.00
27429;BME280;14881;48.092;11.574;2023-12-22T03:52:54;94030.53;;;1.79;100.00
27429;BME280;14881;48.092;11.574;2023-12-22T03:55:22;94025.69;;;1.91;100.00
27429;BME280;14881;48.092;11.574;2023-12-22T03:57:48;94024.59;;;2.07;100.00
27429;BME280;14881;48.092;11.574;2023-12-22T04:00:16;94020.44;;;2.35;100.00
27429;BME280;14881;48.092;11.574;2023-12-22T04:02:42;94027.88;;;2.53;100.00
27429;BME280;14881;48.092;11.574;2023-12-22T04:05:11;94027.69;;;2.78;100.00
27429;BME280;14881;48.092;11.574;2023-12-22T04:07:38;94034.88;;;2.93;100.00
27429;BME280;14881;48.092;11.574;2023-12-22T04:10:05;94021.38;;;3.03;100.00
27429;BME280;14881;48.092;11.574;2023-12-22T04:12:32;94036.59;;;3.13;100.00
27429;BME280;14881;48.092;11.574;2023-12-22T04:14:58;94046.94;;;3.30;100.00
27429;BME280;14881;48.092;11.574;2023-12-22T04:17:25;94040.53;;;3.26;100.00
27429;BME280;14881;48.092;11.574;2023-12-22T04:19:51;94043.38;;;3.39;100.00
27429;BME280;14881;48.092;11.574;2023-12-22T04:22:18;94042.25;;;3.45;100.00
27429;BME280;14881;48.092;11.574;2023-12-22T04:24:45;94047.81;;;3.54;100.00
27429;BME280;14881;48.092;11.574;2023-12-22T04:27:12;94047.00;;;3.54;100.00
27429;BME280;14881;48.092;11.574;2023-12-22T04:29:38;94048.81;;;3.63;100.00
27429;BME280;14881;48.092;11.574;2023-12-22T04:32:05;94032.13;;;3.66;100.00
27429;BME280;14881;48.092;11.574;2023-12-22T04:34:31;94042.69;;;3.58;100.00
27429;BME280;14881;48.092;11.574;2023-12-22T04:36:58;94025.69;;;3.67;100.00
27429;BME280;14881;48.092;11.574;2023-12-22T04:39:24;94021.91;;;3.68;100.00
27429;BME280;14881;48.092;11.574;2023-12-22T04:41:53;94018.94;;;3.70;100.00
27429;BME280;14881;48.092;11.574;2023-12-22T04:44:19;94031.78;;;3.78;100.00
27429;BME280;14881;48.092;11.574;2023-12-22T04:46:46;94014.09;;;3.72;100.00
27429;BME280;14881;48.092;11.574;2023-12-22T04:49:12;94016.22;;;3.75;100.00
27429;BME280;14881;48.092;11.574;2023-12-22T04:51:39;94022.63;;;3.79;100.00
27429;BME280;14881;48.092;11.574;2023-12-22T04:54:05;94021.47;;;3.85;100.00
27429;BME280;14881;48.092;11.574;2023-12-22T04:56:32;94027.84;;;3.94;100.00
27429;BME280;14881;48.092;11.574;2023-12-22T04:58:59;94022.75;;;3.93;100.00
27429;BME280;14881;48.092;11.574;2023-12-22T05:01:25;94026.97;;;3.99;100.00
27429;BME280;14881;48.092;11.574;2023-12-22T05:03:52;94024.88;;;3.96;100.00
27429;BME280;14881;48.092;11.574;2023-12-22T05:06:19;94030.69;;;4.03;100.00
27429;BME280;14881;48.092;11.574;2023-12-22T05:08:46;94017.69;;;4.15;100.00
27429;BME280;14881;48.092;11.574;2023-12-22T05:11:12;94011.50;;;4.14;100.00
27429;BME280;14881;48.092;11.574;2023-12-22T05:13:39;94022.94;;;4.25;100.00
27429;BME280;14881;48.092;11.574;2023-12-22T05:16:06;94023.53;;;4.17;100.00
27429;BME280;14881;48.092;11.574;2023-12-22T05:18:33;94023.69;;;4.31;100.00
27429;BME280;14881;48.092;11.574;2023-12-22T05:20:59;94020.56;;;4.42;100.00
27429;BME280;14881;48.092;11.574;2023-12-22T05:23:26;94031.47;;;4.51;100.00
27429;BME280;14881;48.092;11.574;2023-12-22T05:25:52;94046.22;;;4.53;100.00
27429;BME280;14881;48.092;11.574;2023-12-22T05:28:19;94054.09;;;4.50;100.00
27429;BME280;14881;48.092;11.574;2023-12-22T05:30:46;94044.56;;;4.58;100.00
27429;BME280;14881;48.092;11.574;2023-12-22T05:33:13;94040.50;;;4.60;100.00
27429;BME280;14881;48.092;11.574;2023-12-22T05:35:40;94055.38;;;4.52;100.00
27429;BME280;14881;48.092;11.574;2023-12-22T05:38:06;94024.09;;;4.62;100.00
27429;BME280;14881;48.092;11.574;2023-12-22T05:40:33;94055.56;;;4.61;100.00
27429;BME280;14881;48.092;11.574;2023-12-22T05:43:00;94038.16;;;4.53;100.00
27429;BME280;14881;48.092;11.574;2023-12-22T05:45:26;94047.31;;;4.52;100.00
27429;BME280;14881;48.092;11.574;2023-12-22T05:47:53;94053.16;;;4.60;100.00
27429;BME280;14881;48.092;11.574;2023-12-22T05:50:21;94057.06;;;4.48;100.00
27429;BME280;14881;48.092;11.574;2023-12-22T05:52:47;94059.25;;;4.46;100.00
27429;BME280;14881;48.092;11.574;2023-12-22T05:55:14;94072.50;;;4.38;100.00
27429;BME280;14881;48.092;11.574;2023-12-22T05:57:40;94081.50;;;4.28;100.00
27429;BME280;14881;48.092;11.574;2023-12-22T06:00:07;94091.25;;;4.19;100.00
27429;BME280;14881;48.092;11.574;2023-12-22T06:02:35;94109.88;;;4.10;100.00
27429;BME280;14881;48.092;11.574;2023-12-22T06:05:02;94121.19;;;4.07;100.00
27429;BME280;14881;48.092;11.574;2023-12-22T06:07:29;94099.75;;;4.02;100.00
27429;BME280;14881;48.092;11.574;2023-12-22T06:09:55;94084.50;;;3.98;100.00
27429;BME280;14881;48.092;11.574;2023-12-22T06:12:22;94095.53;;;3.96;100.00
27429;BME280;14881;48.092;11.574;2023-12-22T06:14:48;94112.72;;;3.95;100.00
27429;BME280;14881;48.092;11.574;2023-12-22T06:17:14;94116.78;;;3.93;100.00
27429;BME280;14881;48.092;11.574;2023-12-22T06:19:41;94121.34;;;3.92;100.00
27429;BME280;14881;48.092;11.574;2023-12-22T06:22:07;94126.19;;;3.90;100.00
27429;BME280;14881;48.092;11.574;2023-12-22T06:24:35;94121.91;;;3.89;100.00
27429;BME280;14881;48.092;11.574;2023-12-22T06:27:02;94134.00;;;3.87;100.00
27429;BME280;14881;48.092;11.574;2023-12-22T06:29:28;94137.69;;;3.96;100.00
27429;BME280;14881;48.092;11.574;2023-12-22T06:31:57;94132.59;;;3.94;100.00
27429;BME280;14881;48.092;11.574;2023-12-22T06:34:23;94128.03;;;3.95;100.00
27429;BME280;14881;48.092;11.574;2023-12-22T06:36:51;94123.41;;;4.00;100.00
27429;BME280;14881;48.092;11.574;2023-12-22T06:39:18;94128.97;;;4.09;100.00
27429;BME280;14881;48.092;11.574;2023-12-22T06:41:46;94115.22;;;4.15;100.00
27429;BME280;14881;48.092;11.574;2023-12-22T06:44:12;94119.78;;;4.15;100.00
27429;BME280;14881;48.092;11.574;2023-12-22T06:46:38;94133.16;;;4.20;100.00
27429;BME280;14881;48.092;11.574;2023-12-22T06:49:05;94130.75;;;4.18;100.00
27429;BME280;14881;48.092;11.574;2023-12-22T06:51:33;94144.16;;;4.24;100.00
27429;BME280;14881;48.092;11.574;2023-12-22T06:54:01;94127.63;;;4.35;100.00
27429;BME280;14881;48.092;11.574;2023-12-22T06:56:30;94130.31;;;4.35;100.00
27429;BME280;14881;48.092;11.574;2023-12-22T06:58:58;94134.28;;;4.43;100.00
27429;BME280;14881;48.092;11.574;2023-12-22T07:01:26;94144.22;;;4.42;100.00
27429;BME280;14881;48.092;11.574;2023-12-22T07:03:53;94133.66;;;4.51;100.00
27429;BME280;14881;48.092;11.574;2023-12-22T07:06:21;94143.03;;;4.53;100.00
27429;BME280;14881;48.092;11.574;2023-12-22T07:11:39;94140.06;;;4.55;100.00
27429;BME280;14881;48.092;11.574;2023-12-22T07:14:07;94131.47;;;4.53;100.00
27429;BME280;14881;48.092;11.574;2023-12-22T07:16:34;94135.44;;;4.61;100.00
27429;BME280;14881;48.092;11.574;2023-12-22T07:19:01;94140.84;;;4.55;100.00
27429;BME280;14881;48.092;11.574;2023-12-22T07:21:28;94143.19;;;4.67;100.00
27429;BME280;14881;48.092;11.574;2023-12-22T07:23:55;94148.94;;;4.55;100.00
27429;BME280;14881;48.092;11.574;2023-12-22T07:26:21;94166.81;;;4.41;100.00
27429;BME280;14881;48.092;11.574;2023-12-22T07:28:48;94161.16;;;4.43;100.00
27429;BME280;14881;48.092;11.574;2023-12-22T07:31:18;94166.66;;;4.33;100.00
27429;BME280;14881;48.092;11.574;2023-12-22T07:33:45;94191.63;;;4.33;100.00
27429;BME280;14881;48.092;11.574;2023-12-22T07:36:12;94206.22;;;4.27;100.00
27429;BME280;14881;48.092;11.574;2023-12-22T07:38:38;94209.50;;;4.19;100.00
27429;BME280;14881;48.092;11.574;2023-12-22T07:41:06;94212.09;;;4.29;100.00
27429;BME280;14881;48.092;11.574;2023-12-22T07:43:32;94226.88;;;4.32;100.00
27429;BME280;14881;48.092;11.574;2023-12-22T07:46:01;94209.34;;;4.34;100.00
27429;BME280;14881;48.092;11.574;2023-12-22T07:48:28;94207.00;;;4.28;100.00
27429;BME280;14881;48.092;11.574;2023-12-22T07:50:55;94205.66;;;4.30;100.00
27429;BME280;14881;48.092;11.574;2023-12-22T07:53:21;94197.25;;;4.37;100.00
27429;BME280;14881;48.092;11.574;2023-12-22T07:55:48;94189.38;;;4.45;100.00
27429;BME280;14881;48.092;11.574;2023-12-22T07:58:14;94175.53;;;4.57;100.00
27429;BME280;14881;48.092;11.574;2023-12-22T08:00:41;94187.44;;;4.75;100.00
27429;BME280;14881;48.092;11.574;2023-12-22T08:03:07;94138.69;;;4.81;100.00
27429;BME280;14881;48.092;11.574;2023-12-22T08:05:34;94176.66;;;4.80;100.00
27429;BME280;14881;48.092;11.574;2023-12-22T08:08:01;94188.09;;;4.90;100.00
27429;BME280;14881;48.092;11.574;2023-12-22T08:10:27;94234.19;;;4.84;100.00
27429;BME280;14881;48.092;11.574;2023-12-22T08:12:54;94258.75;;;4.72;100.00
27429;BME280;14881;48.092;11.574;2023-12-22T08:15:20;94268.38;;;4.78;100.00
27429;BME280;14881;48.092;11.574;2023-12-22T08:17:58;94296.75;;;4.66;100.00
27429;BME280;14881;48.092;11.574;2023-12-22T08:20:25;94295.03;;;4.46;100.00
27429;BME280;14881;48.092;11.574;2023-12-22T08:22:59;94285.50;;;4.30;100.00
27429;BME280;14881;48.092;11.574;2023-12-22T08:25:31;94311.75;;;3.99;100.00
27429;BME280;14881;48.092;11.574;2023-12-22T08:27:58;94314.84;;;3.72;100.00
27429;BME280;14881;48.092;11.574;2023-12-22T08:30:24;94314.13;;;3.56;100.00
27429;BME280;14881;48.092;11.574;2023-12-22T08:32:51;94318.13;;;3.59;100.00
27429;BME280;14881;48.092;11.574;2023-12-22T08:35:17;94288.34;;;3.55;100.00
27429;BME280;14881;48.092;11.574;2023-12-22T08:37:44;94309.00;;;3.60;100.00
27429;BME280;14881;48.092;11.574;2023-12-22T08:40:11;94316.47;;;3.68;100.00
27429;BME280;14881;48.092;11.574;2023-12-22T08:42:38;94293.53;;;3.91;100.00
27429;BME280;14881;48.092;11.574;2023-12-22T08:45:06;94302.84;;;4.03;100.00
27429;BME280;14881;48.092;11.574;2023-12-22T08:47:32;94319.13;;;4.22;100.00
27429;BME280;14881;48.092;11.574;2023-12-22T08:50:01;94324.16;;;4.34;100.00
27429;BME280;14881;48.092;11.574;2023-12-22T08:52:30;94311.81;;;4.33;100.00
27429;BME280;14881;48.092;11.574;2023-12-22T08:54:57;94314.72;;;4.36;100.00
27429;BME280;14881;48.092;11.574;2023-12-22T08:57:24;94306.38;;;4.38;100.00
27429;BME280;14881;48.092;11.574;2023-12-22T08:59:51;94316.31;;;4.37;100.00
27429;BME280;14881;48.092;11.574;2023-12-22T09:02:18;94319.88;;;4.33;100.00
27429;BME280;14881;48.092;11.574;2023-12-22T09:04:44;94324.72;;;4.31;100.00
27429;BME280;14881;48.092;11.574;2023-12-22T09:07:10;94340.53;;;4.37;100.00
27429;BME280;14881;48.092;11.574;2023-12-22T09:09:37;94355.81;;;4.42;100.00
27429;BME280;14881;48.092;11.574;2023-12-22T09:12:04;94345.34;;;4.40;100.00
27429;BME280;14881;48.092;11.574;2023-12-22T09:14:31;94333.47;;;4.46;100.00
27429;BME280;14881;48.092;11.574;2023-12-22T09:16:58;94332.84;;;4.60;100.00
27429;BME280;14881;48.092;11.574;2023-12-22T09:19:24;94334.22;;;4.52;100.00
27429;BME280;14881;48.092;11.574;2023-12-22T09:21:52;94314.00;;;4.60;100.00
27429;BME280;14881;48.092;11.574;2023-12-22T09:24:18;94305.28;;;4.73;100.00
27429;BME280;14881;48.092;11.574;2023-12-22T09:26:45;94307.09;;;4.82;100.00
27429;BME280;14881;48.092;11.574;2023-12-22T09:29:11;94284.44;;;4.88;100.00
27429;BME280;14881;48.092;11.574;2023-12-22T09:31:38;94297.59;;;4.90;100.00
27429;BME280;14881;48.092;11.574;2023-12-22T09:34:05;94293.53;;;4.93;100.00
27429;BME280;14881;48.092;11.574;2023-12-22T09:36:34;94303.09;;;5.04;100.00
27429;BME280;14881;48.092;11.574;2023-12-22T09:39:00;94299.84;;;5.07;100.00
27429;BME280;14881;48.092;11.574;2023-12-22T09:41:27;94312.25;;;5.03;100.00
27429;BME280;14881;48.092;11.574;2023-12-22T09:43:58;94301.69;;;5.11;100.00
27429;BME280;14881;48.092;11.574;2023-12-22T09:46:25;94292.56;;;5.07;100.00
27429;BME280;14881;48.092;11.574;2023-12-22T09:48:54;94301.47;;;5.08;100.00
27429;BME280;14881;48.092;11.574;2023-12-22T09:51:21;94298.81;;;5.03;100.00
27429;BME280;14881;48.092;11.574;2023-12-22T09:53:47;94296.50;;;4.91;100.00
27429;BME280;14881;48.092;11.574;2023-12-22T09:56:16;94291.66;;;4.93;100.00
27429;BME280;14881;48.092;11.574;2023-12-22T09:58:44;94309.97;;;4.91;100.00
27429;BME280;14881;48.092;11.574;2023-12-22T10:01:11;94299.31;;;4.81;100.00
27429;BME280;14881;48.092;11.574;2023-12-22T10:03:41;94310.16;;;4.71;100.00
27429;BME280;14881;48.092;11.574;2023-12-22T10:06:11;94320.22;;;4.55;100.00
27429;BME280;14881;48.092;11.574;2023-12-22T10:08:38;94336.44;;;4.45;100.00
27429;BME280;14881;48.092;11.574;2023-12-22T10:11:06;94334.97;;;4.24;100.00
27429;BME280;14881;48.092;11.574;2023-12-22T10:13:36;94324.84;;;4.15;100.00
27429;BME280;14881;48.092;11.574;2023-12-22T10:16:05;94314.16;;;4.00;100.00
27429;BME280;14881;48.092;11.574;2023-12-22T10:18:32;94326.88;;;3.84;100.00
27429;BME280;14881;48.092;11.574;2023-12-22T10:20:59;94314.31;;;3.75;100.00
27429;BME280;14881;48.092;11.574;2023-12-22T10:23:27;94316.75;;;3.66;100.00
27429;BME280;14881;48.092;11.574;2023-12-22T10:25:54;94307.13;;;3.60;100.00
27429;BME280;14881;48.092;11.574;2023-12-22T10:28:23;94305.53;;;3.54;100.00
27429;BME280;14881;48.092;11.574;2023-12-22T10:30:52;94298.75;;;3.67;100.00
27429;BME280;14881;48.092;11.574;2023-12-22T10:33:19;94303.59;;;3.65;100.00
27429;BME280;14881;48.092;11.574;2023-12-22T10:35:46;94289.94;;;3.61;100.00
27429;BME280;14881;48.092;11.574;2023-12-22T10:38:12;94286.69;;;3.64;100.00
27429;BME280;14881;48.092;11.574;2023-12-22T10:40:39;94275.44;;;3.62;100.00
27429;BME280;14881;48.092;11.574;2023-12-22T10:43:06;94280.81;;;3.62;100.00
27429;BME280;14881;48.092;11.574;2023-12-22T10:45:33;94271.63;;;3.68;100.00
27429;BME280;14881;48.092;11.574;2023-12-22T10:47:59;94270.88;;;3.63;100.00
27429;BME280;14881;48.092;11.574;2023-12-22T10:50:28;94258.72;;;3.70;100.00
27429;BME280;14881;48.092;11.574;2023-12-22T10:52:54;94245.56;;;3.74;100.00
27429;BME280;14881;48.092;11.574;2023-12-22T10:55:21;94257.81;;;3.90;100.00
27429;BME280;14881;48.092;11.574;2023-12-22T10:57:48;94241.84;;;4.09;100.00
27429;BME280;14881;48.092;11.574;2023-12-22T11:00:16;94242.50;;;4.25;100.00
27429;BME280;14881;48.092;11.574;2023-12-22T11:02:43;94235.31;;;4.49;100.00
27429;BME280;14881;48.092;11.574;2023-12-22T11:05:15;94247.81;;;4.64;100.00
27429;BME280;14881;48.092;11.574;2023-12-22T11:07:48;94245.94;;;4.64;100.00
27429;BME280;14881;48.092;11.574;2023-12-22T11:10:19;94227.28;;;4.73;100.00
27429;BME280;14881;48.092;11.574;2023-12-22T11:12:47;94250.41;;;4.74;100.00
27429;BME280;14881;48.092;11.574;2023-12-22T11:15:15;94271.13;;;4.73;100.00
27429;BME280;14881;48.092;11.574;2023-12-22T11:17:44;94264.75;;;4.64;100.00
27429;BME280;14881;48.092;11.574;2023-12-22T11:20:13;94258.88;;;4.62;100.00
27429;BME280;14881;48.092;11.574;2023-12-22T11:22:41;94273.63;;;4.65;100.00
27429;BME280;14881;48.092;11.574;2023-12-22T11:25:08;94269.28;;;4.69;100.00
27429;BME280;14881;48.092;11.574;2023-12-22T11:27:43;94271.16;;;4.68;100.00
27429;BME280;14881;48.092;11.574;2023-12-22T11:30:11;94270.03;;;4.74;100.00
27429;BME280;14881;48.092;11.574;2023-12-22T11:32:39;94245.53;;;4.76;100.00
27429;BME280;14881;48.092;11.574;2023-12-22T11:35:06;94247.94;;;4.77;100.00
27429;BME280;14881;48.092;11.574;2023-12-22T11:37:34;94260.59;;;4.77;100.00
27429;BME280;14881;48.092;11.574;2023-12-22T11:40:02;94260.63;;;4.72;100.00
27429;BME280;14881;48.092;11.574;2023-12-22T11:42:31;94256.34;;;4.71;100.00
27429;BME280;14881;48.092;11.574;2023-12-22T11:45:02;94253.13;;;4.69;100.00
27429;BME280;14881;48.092;11.574;2023-12-22T11:47:29;94266.38;;;4.65;100.00
27429;BME280;14881;48.092;11.574;2023-12-22T11:49:57;94252.66;;;4.67;100.00
27429;BME280;14881;48.092;11.574;2023-12-22T11:52:27;94240.28;;;4.66;100.00
27429;BME280;14881;48.092;11.574;2023-12-22T11:54:55;94240.78;;;4.68;100.00
27429;BME280;14881;48.092;11.574;2023-12-22T11:57:35;94257.72;;;4.68;100.00
27429;BME280;14881;48.092;11.574;2023-12-22T12:00:05;94252.56;;;4.72;100.00
27429;BME280;14881;48.092;11.574;2023-12-22T12:02:33;94246.66;;;4.70;100.00
27429;BME280;14881;48.092;11.574;2023-12-22T12:05:01;94251.78;;;4.71;100.00
27429;BME280;14881;48.092;11.574;2023-12-22T12:07:42;94246.09;;;4.73;100.00
27429;BME280;14881;48.092;11.574;2023-12-22T12:10:11;94248.75;;;4.78;100.00
27429;BME280;14881;48.092;11.574;2023-12-22T12:12:38;94252.25;;;4.78;100.00
27429;BME280;14881;48.092;11.574;2023-12-22T12:15:16;94261.41;;;4.77;100.00
27429;BME280;14881;48.092;11.574;2023-12-22T12:17:43;94246.63;;;4.75;100.00
27429;BME280;14881;48.092;11.574;2023-12-22T12:20:11;94245.50;;;4.81;100.00
27429;BME280;14881;48.092;11.574;2023-12-22T12:22:38;94241.13;;;4.85;100.00
27429;BME280;14881;48.092;11.574;2023-12-22T12:25:08;94240.84;;;4.86;100.00
27429;BME280;14881;48.092;11.574;2023-12-22T12:27:47;94244.06;;;4.88;100.00
27429;BME280;14881;48.092;11.574;2023-12-22T12:30:14;94229.28;;;4.86;100.00
27429;BME280;14881;48.092;11.574;2023-12-22T12:32:43;94233.06;;;4.85;100.00
27429;BME280;14881;48.092;11.574;2023-12-22T12:35:13;94227.41;;;4.86;100.00
27429;BME280;14881;48.092;11.574;2023-12-22T12:37:40;94225.50;;;4.87;100.00
27429;BME280;14881;48.092;11.574;2023-12-22T12:40:11;94202.91;;;4.88;100.00
27429;BME280;14881;48.092;11.574;2023-12-22T12:42:37;94201.00;;;4.88;100.00
27429;BME280;14881;48.092;11.574;2023-12-22T12:45:05;94182.97;;;4.89;100.00
27429;BME280;14881;48.092;11.574;2023-12-22T12:47:32;94185.91;;;4.93;100.00
27429;BME280;14881;48.092;11.574;2023-12-22T12:49:59;94182.13;;;4.94;100.00
27429;BME280;14881;48.092;11.574;2023-12-22T12:52:26;94174.06;;;4.94;100.00
27429;BME280;14881;48.092;11.574;2023-12-22T12:54:53;94166.75;;;4.99;100.00